aviador You're here:

KBFW Decoded Metar

SILVER BAY in MN, USA
Report Time2017-08-18 09:54:00
UTC Time2017-08-18 10:49:03
Flight Rules vfr VFR
WindCalm
Visibility9999 m
Phenomena:N/A
Clouds:Scattered 022 Hf
Expected CloudBase > 800 ft AGL from Temp-Dew spread
CeilingNone
Temp16°C (ISA +3)
Dew Point14°C (88% RH)
QNH1008 hPa
Density Alt1,844 ft
Elevation1,086 ft
Report Wrong Elevation
Raw Report
METAR KBFW 180954Z AUTO 00000KT 10SM SCT022 16/14 A2977 RMK AO2=

Extra information for KBFW:More info

Metar Taf Metar & Taf Last 4 Metars F.Rules Stats Wind Profile Meteogram Temp Stats Airport Information Weather charts Add Link Nearby VenuesMetar ALERT Operation Metar Decoded Social comments

AIRNAV info for KBFW